sensor_id;sensor_type;location;lat;lon;timestamp;P1;durP1;ratioP1;P2;durP2;ratioP2
73452;SDS011;61687;56.232;43.854;2022-08-19T00:01:30;30.37;;;15.07;;
73452;SDS011;61687;56.232;43.854;2022-08-19T00:03:58;29.73;;;14.40;;
73452;SDS011;61687;56.232;43.854;2022-08-19T00:06:26;27.67;;;15.85;;
73452;SDS011;61687;56.232;43.854;2022-08-19T00:08:54;31.23;;;14.13;;
73452;SDS011;61687;56.232;43.854;2022-08-19T00:11:21;23.25;;;11.88;;
73452;SDS011;61687;56.232;43.854;2022-08-19T00:13:47;23.83;;;12.93;;
73452;SDS011;61687;56.232;43.854;2022-08-19T00:16:16;23.85;;;12.38;;
73452;SDS011;61687;56.232;43.854;2022-08-19T00:18:44;24.00;;;12.55;;
73452;SDS011;61687;56.232;43.854;2022-08-19T00:21:10;24.48;;;12.32;;
73452;SDS011;61687;56.232;43.854;2022-08-19T00:23:36;23.17;;;11.53;;
73452;SDS011;61687;56.232;43.854;2022-08-19T00:26:03;21.73;;;12.07;;
73452;SDS011;61687;56.232;43.854;2022-08-19T00:28:30;22.52;;;12.02;;
73452;SDS011;61687;56.232;43.854;2022-08-19T00:30:57;26.00;;;12.27;;
73452;SDS011;61687;56.232;43.854;2022-08-19T00:33:23;30.73;;;12.23;;
73452;SDS011;61687;56.232;43.854;2022-08-19T00:35:49;25.13;;;11.57;;
73452;SDS011;61687;56.232;43.854;2022-08-19T00:38:15;25.85;;;12.00;;
73452;SDS011;61687;56.232;43.854;2022-08-19T00:40:44;26.92;;;12.60;;
73452;SDS011;61687;56.232;43.854;2022-08-19T00:43:12;23.05;;;12.05;;
73452;SDS011;61687;56.232;43.854;2022-08-19T00:45:39;26.25;;;13.20;;
73452;SDS011;61687;56.232;43.854;2022-08-19T00:48:07;25.67;;;13.27;;
73452;SDS011;61687;56.232;43.854;2022-08-19T00:50:33;31.15;;;14.93;;
73452;SDS011;61687;56.232;43.854;2022-08-19T00:53:00;31.90;;;14.23;;
73452;SDS011;61687;56.232;43.854;2022-08-19T00:55:30;28.48;;;14.57;;
73452;SDS011;61687;56.232;43.854;2022-08-19T00:57:59;34.83;;;16.15;;
73452;SDS011;61687;56.232;43.854;2022-08-19T01:00:32;27.10;;;14.70;;
73452;SDS011;61687;56.232;43.854;2022-08-19T01:03:09;34.65;;;15.90;;
73452;SDS011;61687;56.232;43.854;2022-08-19T01:05:37;32.05;;;15.88;;
73452;SDS011;61687;56.232;43.854;2022-08-19T01:08:06;36.08;;;16.42;;
73452;SDS011;61687;56.232;43.854;2022-08-19T01:10:43;31.50;;;16.92;;
73452;SDS011;61687;56.232;43.854;2022-08-19T01:13:21;36.87;;;19.30;;
73452;SDS011;61687;56.232;43.854;2022-08-19T01:15:51;39.30;;;18.70;;
73452;SDS011;61687;56.232;43.854;2022-08-19T01:18:20;43.88;;;21.60;;
73452;SDS011;61687;56.232;43.854;2022-08-19T01:20:47;47.63;;;24.13;;
73452;SDS011;61687;56.232;43.854;2022-08-19T01:23:13;51.90;;;25.05;;
73452;SDS011;61687;56.232;43.854;2022-08-19T01:25:42;54.50;;;25.83;;
73452;SDS011;61687;56.232;43.854;2022-08-19T01:28:17;54.78;;;26.35;;
73452;SDS011;61687;56.232;43.854;2022-08-19T01:30:45;56.40;;;29.13;;
73452;SDS011;61687;56.232;43.854;2022-08-19T01:33:12;58.67;;;28.58;;
73452;SDS011;61687;56.232;43.854;2022-08-19T01:35:39;52.78;;;28.65;;
73452;SDS011;61687;56.232;43.854;2022-08-19T01:38:07;57.40;;;28.40;;
73452;SDS011;61687;56.232;43.854;2022-08-19T01:40:37;57.35;;;30.13;;
73452;SDS011;61687;56.232;43.854;2022-08-19T01:43:05;55.88;;;30.40;;
73452;SDS011;61687;56.232;43.854;2022-08-19T01:45:32;62.65;;;30.63;;
73452;SDS011;61687;56.232;43.854;2022-08-19T01:47:59;65.28;;;31.98;;
73452;SDS011;61687;56.232;43.854;2022-08-19T01:50:26;64.13;;;31.20;;
73452;SDS011;61687;56.232;43.854;2022-08-19T01:52:52;63.13;;;30.33;;
73452;SDS011;61687;56.232;43.854;2022-08-19T01:55:19;70.45;;;31.60;;
73452;SDS011;61687;56.232;43.854;2022-08-19T01:57:50;62.22;;;31.55;;
73452;SDS011;61687;56.232;43.854;2022-08-19T02:00:21;68.53;;;32.53;;
73452;SDS011;61687;56.232;43.854;2022-08-19T02:02:49;65.80;;;32.03;;
73452;SDS011;61687;56.232;43.854;2022-08-19T02:05:15;71.05;;;32.58;;
73452;SDS011;61687;56.232;43.854;2022-08-19T02:07:43;70.93;;;33.00;;
73452;SDS011;61687;56.232;43.854;2022-08-19T02:10:12;72.75;;;34.58;;
73452;SDS011;61687;56.232;43.854;2022-08-19T02:12:44;75.60;;;34.47;;
73452;SDS011;61687;56.232;43.854;2022-08-19T02:15:10;69.30;;;34.30;;
73452;SDS011;61687;56.232;43.854;2022-08-19T02:17:37;71.60;;;36.22;;
73452;SDS011;61687;56.232;43.854;2022-08-19T02:20:03;71.03;;;35.08;;
73452;SDS011;61687;56.232;43.854;2022-08-19T02:22:31;73.00;;;35.72;;
73452;SDS011;61687;56.232;43.854;2022-08-19T02:24:57;79.32;;;37.47;;
73452;SDS011;61687;56.232;43.854;2022-08-19T02:27:24;79.93;;;36.63;;
73452;SDS011;61687;56.232;43.854;2022-08-19T02:29:51;89.00;;;38.20;;
73452;SDS011;61687;56.232;43.854;2022-08-19T02:32:18;86.55;;;40.67;;
73452;SDS011;61687;56.232;43.854;2022-08-19T02:34:46;86.53;;;38.10;;
73452;SDS011;61687;56.232;43.854;2022-08-19T02:37:12;84.72;;;40.30;;
73452;SDS011;61687;56.232;43.854;2022-08-19T02:39:57;83.53;;;40.17;;
73452;SDS011;61687;56.232;43.854;2022-08-19T02:42:24;85.03;;;39.08;;
73452;SDS011;61687;56.232;43.854;2022-08-19T02:44:50;86.80;;;40.17;;
73452;SDS011;61687;56.232;43.854;2022-08-19T02:47:17;86.30;;;41.28;;
73452;SDS011;61687;56.232;43.854;2022-08-19T02:49:44;87.07;;;42.22;;
73452;SDS011;61687;56.232;43.854;2022-08-19T02:52:11;92.10;;;42.20;;
73452;SDS011;61687;56.232;43.854;2022-08-19T02:54:37;96.20;;;44.35;;
73452;SDS011;61687;56.232;43.854;2022-08-19T02:57:04;92.30;;;43.13;;
73452;SDS011;61687;56.232;43.854;2022-08-19T02:59:31;100.55;;;44.08;;
73452;SDS011;61687;56.232;43.854;2022-08-19T03:01:58;91.63;;;44.67;;
73452;SDS011;61687;56.232;43.854;2022-08-19T03:04:24;99.00;;;43.67;;
73452;SDS011;61687;56.232;43.854;2022-08-19T03:06:50;96.32;;;44.58;;
73452;SDS011;61687;56.232;43.854;2022-08-19T03:09:17;93.28;;;44.60;;
73452;SDS011;61687;56.232;43.854;2022-08-19T03:11:45;96.07;;;44.90;;
73452;SDS011;61687;56.232;43.854;2022-08-19T03:14:11;96.75;;;44.95;;
73452;SDS011;61687;56.232;43.854;2022-08-19T03:16:42;89.43;;;43.63;;
73452;SDS011;61687;56.232;43.854;2022-08-19T03:19:11;89.18;;;43.80;;
73452;SDS011;61687;56.232;43.854;2022-08-19T03:21:37;95.10;;;43.55;;
73452;SDS011;61687;56.232;43.854;2022-08-19T03:24:07;94.25;;;44.03;;
73452;SDS011;61687;56.232;43.854;2022-08-19T03:26:34;91.38;;;43.83;;
73452;SDS011;61687;56.232;43.854;2022-08-19T03:29:03;90.10;;;44.43;;
73452;SDS011;61687;56.232;43.854;2022-08-19T03:31:30;93.78;;;45.85;;
73452;SDS011;61687;56.232;43.854;2022-08-19T03:33:56;100.22;;;45.50;;
73452;SDS011;61687;56.232;43.854;2022-08-19T03:36:23;95.05;;;44.58;;
73452;SDS011;61687;56.232;43.854;2022-08-19T03:38:51;99.95;;;46.55;;
73452;SDS011;61687;56.232;43.854;2022-08-19T03:41:21;89.20;;;43.57;;
73452;SDS011;61687;56.232;43.854;2022-08-19T03:43:52;95.05;;;45.40;;
73452;SDS011;61687;56.232;43.854;2022-08-19T03:46:19;96.07;;;45.33;;
73452;SDS011;61687;56.232;43.854;2022-08-19T03:48:48;92.47;;;43.65;;
73452;SDS011;61687;56.232;43.854;2022-08-19T03:51:28;91.13;;;41.58;;
73452;SDS011;61687;56.232;43.854;2022-08-19T03:53:56;89.90;;;42.63;;
73452;SDS011;61687;56.232;43.854;2022-08-19T03:56:24;90.72;;;44.53;;
73452;SDS011;61687;56.232;43.854;2022-08-19T03:58:51;95.10;;;43.17;;
73452;SDS011;61687;56.232;43.854;2022-08-19T04:01:19;86.10;;;42.15;;
73452;SDS011;61687;56.232;43.854;2022-08-19T04:03:47;91.68;;;42.90;;
73452;SDS011;61687;56.232;43.854;2022-08-19T04:06:14;88.30;;;42.13;;
73452;SDS011;61687;56.232;43.854;2022-08-19T04:08:43;90.70;;;43.22;;
73452;SDS011;61687;56.232;43.854;2022-08-19T04:11:11;89.90;;;44.58;;
73452;SDS011;61687;56.232;43.854;2022-08-19T04:13:43;87.80;;;42.17;;
73452;SDS011;61687;56.232;43.854;2022-08-19T04:16:10;81.78;;;39.85;;
73452;SDS011;61687;56.232;43.854;2022-08-19T04:18:36;82.60;;;39.00;;
73452;SDS011;61687;56.232;43.854;2022-08-19T04:21:04;80.32;;;40.38;;
73452;SDS011;61687;56.232;43.854;2022-08-19T04:23:32;90.57;;;41.25;;
73452;SDS011;61687;56.232;43.854;2022-08-19T04:25:58;80.82;;;39.30;;
73452;SDS011;61687;56.232;43.854;2022-08-19T04:28:25;86.93;;;41.25;;
73452;SDS011;61687;56.232;43.854;2022-08-19T04:30:52;79.83;;;39.83;;
73452;SDS011;61687;56.232;43.854;2022-08-19T04:33:20;79.93;;;39.17;;
73452;SDS011;61687;56.232;43.854;2022-08-19T04:35:49;76.05;;;38.35;;
73452;SDS011;61687;56.232;43.854;2022-08-19T04:38:19;82.13;;;40.08;;
73452;SDS011;61687;56.232;43.854;2022-08-19T04:40:48;74.28;;;39.80;;
73452;SDS011;61687;56.232;43.854;2022-08-19T04:43:35;79.37;;;39.70;;
73452;SDS011;61687;56.232;43.854;2022-08-19T04:46:09;81.43;;;38.55;;
73452;SDS011;61687;56.232;43.854;2022-08-19T04:48:37;81.70;;;38.05;;
73452;SDS011;61687;56.232;43.854;2022-08-19T04:51:08;71.20;;;36.45;;
73452;SDS011;61687;56.232;43.854;2022-08-19T04:53:37;71.45;;;35.45;;
73452;SDS011;61687;56.232;43.854;2022-08-19T04:56:05;71.40;;;35.40;;
73452;SDS011;61687;56.232;43.854;2022-08-19T04:58:37;77.13;;;34.92;;
73452;SDS011;61687;56.232;43.854;2022-08-19T05:01:04;74.38;;;35.13;;
73452;SDS011;61687;56.232;43.854;2022-08-19T05:03:30;70.15;;;33.00;;
73452;SDS011;61687;56.232;43.854;2022-08-19T05:06:05;75.05;;;35.03;;
73452;SDS011;61687;56.232;43.854;2022-08-19T05:08:37;72.60;;;33.43;;
73452;SDS011;61687;56.232;43.854;2022-08-19T05:11:11;74.63;;;34.83;;
73452;SDS011;61687;56.232;43.854;2022-08-19T05:13:51;61.05;;;32.05;;
73452;SDS011;61687;56.232;43.854;2022-08-19T05:16:18;67.78;;;32.30;;
73452;SDS011;61687;56.232;43.854;2022-08-19T05:18:46;66.70;;;33.17;;
73452;SDS011;61687;56.232;43.854;2022-08-19T05:21:30;65.40;;;32.73;;
73452;SDS011;61687;56.232;43.854;2022-08-19T05:24:15;65.82;;;31.55;;
73452;SDS011;61687;56.232;43.854;2022-08-19T05:26:42;72.68;;;31.95;;
73452;SDS011;61687;56.232;43.854;2022-08-19T05:29:17;70.38;;;31.90;;
73452;SDS011;61687;56.232;43.854;2022-08-19T05:31:45;65.93;;;33.28;;
73452;SDS011;61687;56.232;43.854;2022-08-19T05:34:15;67.57;;;32.93;;
73452;SDS011;61687;56.232;43.854;2022-08-19T05:36:42;69.03;;;33.25;;
73452;SDS011;61687;56.232;43.854;2022-08-19T05:39:11;66.68;;;30.38;;
73452;SDS011;61687;56.232;43.854;2022-08-19T05:41:44;77.63;;;33.25;;
73452;SDS011;61687;56.232;43.854;2022-08-19T05:44:12;66.45;;;30.67;;
73452;SDS011;61687;56.232;43.854;2022-08-19T05:46:40;70.13;;;32.30;;
73452;SDS011;61687;56.232;43.854;2022-08-19T05:49:08;61.85;;;30.48;;
73452;SDS011;61687;56.232;43.854;2022-08-19T05:51:35;69.53;;;31.63;;
73452;SDS011;61687;56.232;43.854;2022-08-19T05:54:02;58.00;;;29.98;;
73452;SDS011;61687;56.232;43.854;2022-08-19T05:56:29;61.38;;;29.98;;
73452;SDS011;61687;56.232;43.854;2022-08-19T05:58:56;74.47;;;30.73;;
73452;SDS011;61687;56.232;43.854;2022-08-19T06:01:24;60.88;;;28.30;;
73452;SDS011;61687;56.232;43.854;2022-08-19T06:03:51;61.50;;;27.73;;
73452;SDS011;61687;56.232;43.854;2022-08-19T06:06:18;56.58;;;26.20;;
73452;SDS011;61687;56.232;43.854;2022-08-19T06:08:45;52.03;;;26.90;;
73452;SDS011;61687;56.232;43.854;2022-08-19T06:13:51;42.53;;;19.15;;
73452;SDS011;61687;56.232;43.854;2022-08-19T06:16:21;54.03;;;18.92;;
73452;SDS011;61687;56.232;43.854;2022-08-19T06:18:53;54.47;;;21.20;;
73452;SDS011;61687;56.232;43.854;2022-08-19T06:21:22;50.38;;;22.77;;
73452;SDS011;61687;56.232;43.854;2022-08-19T06:23:51;41.90;;;20.07;;
73452;SDS011;61687;56.232;43.854;2022-08-19T06:26:17;37.60;;;18.40;;
73452;SDS011;61687;56.232;43.854;2022-08-19T06:28:45;39.08;;;18.48;;
73452;SDS011;61687;56.232;43.854;2022-08-19T06:31:15;39.08;;;17.75;;
73452;SDS011;61687;56.232;43.854;2022-08-19T06:33:44;41.35;;;16.38;;
73452;SDS011;61687;56.232;43.854;2022-08-19T06:39:16;28.40;;;13.93;;
73452;SDS011;61687;56.232;43.854;2022-08-19T06:41:48;25.45;;;13.00;;
73452;SDS011;61687;56.232;43.854;2022-08-19T06:44:17;27.88;;;13.18;;
73452;SDS011;61687;56.232;43.854;2022-08-19T06:46:44;23.50;;;12.27;;
73452;SDS011;61687;56.232;43.854;2022-08-19T06:49:11;27.27;;;13.17;;
73452;SDS011;61687;56.232;43.854;2022-08-19T06:51:40;28.17;;;11.43;;
73452;SDS011;61687;56.232;43.854;2022-08-19T06:54:07;25.60;;;11.85;;
73452;SDS011;61687;56.232;43.854;2022-08-19T06:56:34;22.52;;;11.00;;
73452;SDS011;61687;56.232;43.854;2022-08-19T06:59:01;33.75;;;11.07;;
73452;SDS011;61687;56.232;43.854;2022-08-19T07:01:29;22.43;;;10.53;;
73452;SDS011;61687;56.232;43.854;2022-08-19T07:03:54;23.85;;;10.30;;
73452;SDS011;61687;56.232;43.854;2022-08-19T07:06:21;20.25;;;9.55;;
73452;SDS011;61687;56.232;43.854;2022-08-19T07:08:47;20.60;;;9.15;;
73452;SDS011;61687;56.232;43.854;2022-08-19T07:11:15;21.73;;;8.37;;
73452;SDS011;61687;56.232;43.854;2022-08-19T07:13:45;16.08;;;7.25;;
73452;SDS011;61687;56.232;43.854;2022-08-19T07:16:13;16.52;;;6.70;;
73452;SDS011;61687;56.232;43.854;2022-08-19T07:18:41;23.80;;;6.20;;
73452;SDS011;61687;56.232;43.854;2022-08-19T07:21:08;14.77;;;5.90;;
73452;SDS011;61687;56.232;43.854;2022-08-19T07:23:36;17.27;;;5.00;;
73452;SDS011;61687;56.232;43.854;2022-08-19T07:26:06;18.60;;;5.10;;
73452;SDS011;61687;56.232;43.854;2022-08-19T07:28:34;13.13;;;4.50;;
73452;SDS011;61687;56.232;43.854;2022-08-19T07:31:05;15.20;;;4.80;;
73452;SDS011;61687;56.232;43.854;2022-08-19T07:33:32;18.08;;;4.50;;
73452;SDS011;61687;56.232;43.854;2022-08-19T07:36:05;13.90;;;3.77;;
73452;SDS011;61687;56.232;43.854;2022-08-19T07:38:33;17.90;;;4.40;;
73452;SDS011;61687;56.232;43.854;2022-08-19T07:41:00;20.98;;;4.28;;
73452;SDS011;61687;56.232;43.854;2022-08-19T07:43:26;14.65;;;3.45;;
73452;SDS011;61687;56.232;43.854;2022-08-19T07:45:53;8.73;;;3.60;;
73452;SDS011;61687;56.232;43.854;2022-08-19T07:48:23;16.77;;;3.80;;
73452;SDS011;61687;56.232;43.854;2022-08-19T07:50:53;13.65;;;3.63;;
73452;SDS011;61687;56.232;43.854;2022-08-19T07:53:23;16.88;;;3.35;;
73452;SDS011;61687;56.232;43.854;2022-08-19T07:55:50;11.27;;;4.32;;
73452;SDS011;61687;56.232;43.854;2022-08-19T07:58:18;9.40;;;3.40;;
73452;SDS011;61687;56.232;43.854;2022-08-19T08:00:46;13.90;;;3.13;;
73452;SDS011;61687;56.232;43.854;2022-08-19T08:03:16;9.15;;;3.92;;
73452;SDS011;61687;56.232;43.854;2022-08-19T08:05:44;10.30;;;4.28;;
73452;SDS011;61687;56.232;43.854;2022-08-19T08:08:29;14.20;;;3.55;;
73452;SDS011;61687;56.232;43.854;2022-08-19T08:11:10;16.05;;;3.55;;
73452;SDS011;61687;56.232;43.854;2022-08-19T08:13:37;12.30;;;3.33;;
73452;SDS011;61687;56.232;43.854;2022-08-19T08:16:05;16.08;;;4.15;;
73452;SDS011;61687;56.232;43.854;2022-08-19T08:18:32;12.65;;;2.97;;
73452;SDS011;61687;56.232;43.854;2022-08-19T08:20:59;9.27;;;3.05;;
73452;SDS011;61687;56.232;43.854;2022-08-19T08:23:25;11.33;;;3.70;;
73452;SDS011;61687;56.232;43.854;2022-08-19T08:25:52;12.63;;;3.22;;
73452;SDS011;61687;56.232;43.854;2022-08-19T08:28:20;7.78;;;3.13;;
73452;SDS011;61687;56.232;43.854;2022-08-19T08:30:47;6.85;;;3.20;;
73452;SDS011;61687;56.232;43.854;2022-08-19T08:33:18;11.93;;;3.50;;
73452;SDS011;61687;56.232;43.854;2022-08-19T08:35:45;8.73;;;3.10;;
73452;SDS011;61687;56.232;43.854;2022-08-19T08:38:11;14.57;;;3.42;;
73452;SDS011;61687;56.232;43.854;2022-08-19T08:43:30;11.13;;;3.28;;
73452;SDS011;61687;56.232;43.854;2022-08-19T08:46:09;12.60;;;3.58;;
73452;SDS011;61687;56.232;43.854;2022-08-19T08:48:48;16.70;;;4.03;;
73452;SDS011;61687;56.232;43.854;2022-08-19T08:51:36;9.52;;;3.50;;
73452;SDS011;61687;56.232;43.854;2022-08-19T08:54:07;9.18;;;2.83;;
73452;SDS011;61687;56.232;43.854;2022-08-19T08:56:38;12.20;;;3.55;;
73452;SDS011;61687;56.232;43.854;2022-08-19T08:59:07;13.40;;;2.85;;
73452;SDS011;61687;56.232;43.854;2022-08-19T09:01:42;7.73;;;2.97;;
73452;SDS011;61687;56.232;43.854;2022-08-19T09:04:08;8.95;;;3.08;;
73452;SDS011;61687;56.232;43.854;2022-08-19T09:06:49;13.65;;;2.80;;
73452;SDS011;61687;56.232;43.854;2022-08-19T09:09:35;11.88;;;3.63;;
73452;SDS011;61687;56.232;43.854;2022-08-19T09:14:55;15.67;;;3.43;;
73452;SDS011;61687;56.232;43.854;2022-08-19T09:17:27;6.60;;;3.03;;
73452;SDS011;61687;56.232;43.854;2022-08-19T09:20:00;12.90;;;2.80;;
73452;SDS011;61687;56.232;43.854;2022-08-19T09:22:34;7.60;;;2.55;;
73452;SDS011;61687;56.232;43.854;2022-08-19T09:25:03;15.02;;;2.65;;
73452;SDS011;61687;56.232;43.854;2022-08-19T09:27:30;10.00;;;3.10;;
73452;SDS011;61687;56.232;43.854;2022-08-19T09:29:57;9.55;;;2.92;;
73452;SDS011;61687;56.232;43.854;2022-08-19T09:32:23;8.32;;;3.38;;
73452;SDS011;61687;56.232;43.854;2022-08-19T09:34:50;37.38;;;3.85;;
73452;SDS011;61687;56.232;43.854;2022-08-19T09:37:20;8.82;;;2.70;;
73452;SDS011;61687;56.232;43.854;2022-08-19T09:39:47;10.80;;;3.00;;
73452;SDS011;61687;56.232;43.854;2022-08-19T09:42:13;9.98;;;3.33;;
73452;SDS011;61687;56.232;43.854;2022-08-19T09:44:40;11.32;;;2.65;;
73452;SDS011;61687;56.232;43.854;2022-08-19T09:47:07;11.60;;;2.60;;
73452;SDS011;61687;56.232;43.854;2022-08-19T09:49:34;9.80;;;2.40;;
73452;SDS011;61687;56.232;43.854;2022-08-19T09:52:00;14.95;;;2.55;;
73452;SDS011;61687;56.232;43.854;2022-08-19T09:54:27;10.55;;;2.35;;
73452;SDS011;61687;56.232;43.854;2022-08-19T09:56:54;10.05;;;2.83;;
73452;SDS011;61687;56.232;43.854;2022-08-19T09:59:20;8.73;;;2.42;;
73452;SDS011;61687;56.232;43.854;2022-08-19T10:01:47;12.10;;;2.50;;
73452;SDS011;61687;56.232;43.854;2022-08-19T10:04:13;10.27;;;2.50;;
73452;SDS011;61687;56.232;43.854;2022-08-19T10:06:38;9.48;;;2.70;;
73452;SDS011;61687;56.232;43.854;2022-08-19T10:09:09;16.35;;;2.60;;
73452;SDS011;61687;56.232;43.854;2022-08-19T10:11:38;13.35;;;2.70;;
73452;SDS011;61687;56.232;43.854;2022-08-19T10:14:06;7.50;;;1.93;;
73452;SDS011;61687;56.232;43.854;2022-08-19T10:16:33;13.75;;;2.08;;
73452;SDS011;61687;56.232;43.854;2022-08-19T10:19:01;9.23;;;2.47;;
73452;SDS011;61687;56.232;43.854;2022-08-19T10:21:29;9.93;;;2.40;;
73452;SDS011;61687;56.232;43.854;2022-08-19T10:23:58;10.65;;;2.63;;
73452;SDS011;61687;56.232;43.854;2022-08-19T10:26:28;11.37;;;2.20;;
73452;SDS011;61687;56.232;43.854;2022-08-19T10:28:56;7.88;;;2.20;;
73452;SDS011;61687;56.232;43.854;2022-08-19T10:31:27;12.35;;;2.13;;
73452;SDS011;61687;56.232;43.854;2022-08-19T10:33:55;13.63;;;2.13;;
73452;SDS011;61687;56.232;43.854;2022-08-19T10:36:26;17.80;;;2.92;;
73452;SDS011;61687;56.232;43.854;2022-08-19T10:38:55;9.70;;;2.47;;
73452;SDS011;61687;56.232;43.854;2022-08-19T10:41:28;7.25;;;1.92;;
73452;SDS011;61687;56.232;43.854;2022-08-19T10:44:00;8.98;;;2.33;;
73452;SDS011;61687;56.232;43.854;2022-08-19T10:46:30;19.25;;;2.70;;
73452;SDS011;61687;56.232;43.854;2022-08-19T10:48:58;17.65;;;2.33;;
73452;SDS011;61687;56.232;43.854;2022-08-19T10:51:25;9.23;;;2.00;;
73452;SDS011;61687;56.232;43.854;2022-08-19T10:54:10;10.25;;;1.60;;
73452;SDS011;61687;56.232;43.854;2022-08-19T10:56:36;8.65;;;2.20;;
73452;SDS011;61687;56.232;43.854;2022-08-19T10:59:22;5.97;;;2.47;;
73452;SDS011;61687;56.232;43.854;2022-08-19T11:01:51;10.10;;;2.43;;
73452;SDS011;61687;56.232;43.854;2022-08-19T11:04:18;5.90;;;2.20;;
73452;SDS011;61687;56.232;43.854;2022-08-19T11:06:45;6.88;;;1.92;;
73452;SDS011;61687;56.232;43.854;2022-08-19T11:09:17;19.55;;;2.60;;
73452;SDS011;61687;56.232;43.854;2022-08-19T11:11:45;9.77;;;2.25;;
73452;SDS011;61687;56.232;43.854;2022-08-19T11:14:15;10.13;;;1.70;;
73452;SDS011;61687;56.232;43.854;2022-08-19T11:16:51;9.90;;;1.98;;
73452;SDS011;61687;56.232;43.854;2022-08-19T11:19:21;6.88;;;2.30;;
73452;SDS011;61687;56.232;43.854;2022-08-19T11:21:49;7.45;;;2.60;;
73452;SDS011;61687;56.232;43.854;2022-08-19T11:24:20;14.70;;;2.42;;
73452;SDS011;61687;56.232;43.854;2022-08-19T11:26:49;8.67;;;2.00;;
73452;SDS011;61687;56.232;43.854;2022-08-19T11:29:23;8.32;;;1.88;;
73452;SDS011;61687;56.232;43.854;2022-08-19T11:31:53;11.48;;;2.40;;
73452;SDS011;61687;56.232;43.854;2022-08-19T11:34:22;6.72;;;1.90;;
73452;SDS011;61687;56.232;43.854;2022-08-19T11:36:50;15.70;;;2.38;;
73452;SDS011;61687;56.232;43.854;2022-08-19T11:39:18;15.07;;;2.53;;
73452;SDS011;61687;56.232;43.854;2022-08-19T11:41:46;11.27;;;2.40;;
73452;SDS011;61687;56.232;43.854;2022-08-19T11:44:12;8.98;;;2.50;;
73452;SDS011;61687;56.232;43.854;2022-08-19T11:46:39;12.85;;;2.80;;
73452;SDS011;61687;56.232;43.854;2022-08-19T11:49:07;8.68;;;2.28;;
73452;SDS011;61687;56.232;43.854;2022-08-19T11:51:35;7.07;;;2.63;;
73452;SDS011;61687;56.232;43.854;2022-08-19T11:54:02;8.85;;;2.13;;
73452;SDS011;61687;56.232;43.854;2022-08-19T11:56:30;8.55;;;2.53;;
73452;SDS011;61687;56.232;43.854;2022-08-19T11:58:57;13.00;;;2.50;;
73452;SDS011;61687;56.232;43.854;2022-08-19T12:01:24;7.00;;;3.10;;
73452;SDS011;61687;56.232;43.854;2022-08-19T12:03:52;10.83;;;2.53;;
73452;SDS011;61687;56.232;43.854;2022-08-19T12:06:29;11.60;;;2.33;;
73452;SDS011;61687;56.232;43.854;2022-08-19T12:09:00;7.13;;;2.38;;
73452;SDS011;61687;56.232;43.854;2022-08-19T12:11:29;8.90;;;2.83;;
73452;SDS011;61687;56.232;43.854;2022-08-19T12:13:55;15.30;;;2.70;;
73452;SDS011;61687;56.232;43.854;2022-08-19T12:16:24;14.40;;;2.80;;
73452;SDS011;61687;56.232;43.854;2022-08-19T12:18:52;10.93;;;2.63;;
73452;SDS011;61687;56.232;43.854;2022-08-19T12:21:21;11.80;;;2.35;;
73452;SDS011;61687;56.232;43.854;2022-08-19T12:23:50;8.57;;;2.58;;
73452;SDS011;61687;56.232;43.854;2022-08-19T12:26:17;13.32;;;3.00;;
73452;SDS011;61687;56.232;43.854;2022-08-19T12:28:44;7.97;;;2.53;;
73452;SDS011;61687;56.232;43.854;2022-08-19T12:31:10;11.57;;;2.58;;
73452;SDS011;61687;56.232;43.854;2022-08-19T12:33:39;12.13;;;2.70;;
73452;SDS011;61687;56.232;43.854;2022-08-19T12:36:07;10.55;;;2.92;;
73452;SDS011;61687;56.232;43.854;2022-08-19T12:38:37;8.93;;;2.38;;
73452;SDS011;61687;56.232;43.854;2022-08-19T12:41:05;9.30;;;2.27;;
73452;SDS011;61687;56.232;43.854;2022-08-19T12:43:32;6.72;;;2.13;;
73452;SDS011;61687;56.232;43.854;2022-08-19T12:46:00;10.55;;;2.90;;
73452;SDS011;61687;56.232;43.854;2022-08-19T12:48:27;14.30;;;2.72;;
73452;SDS011;61687;56.232;43.854;2022-08-19T12:50:54;9.50;;;2.63;;
73452;SDS011;61687;56.232;43.854;2022-08-19T12:53:20;10.57;;;3.03;;
73452;SDS011;61687;56.232;43.854;2022-08-19T12:55:46;13.02;;;3.10;;
73452;SDS011;61687;56.232;43.854;2022-08-19T12:58:12;12.00;;;2.97;;
73452;SDS011;61687;56.232;43.854;2022-08-19T13:00:38;11.70;;;2.70;;
73452;SDS011;61687;56.232;43.854;2022-08-19T13:03:06;8.57;;;3.70;;
73452;SDS011;61687;56.232;43.854;2022-08-19T13:05:33;18.50;;;3.92;;
73452;SDS011;61687;56.232;43.854;2022-08-19T13:08:00;12.43;;;3.00;;
73452;SDS011;61687;56.232;43.854;2022-08-19T13:10:28;9.60;;;3.03;;
73452;SDS011;61687;56.232;43.854;2022-08-19T13:13:00;11.37;;;3.00;;
73452;SDS011;61687;56.232;43.854;2022-08-19T13:15:29;19.02;;;3.63;;
73452;SDS011;61687;56.232;43.854;2022-08-19T13:17:58;12.63;;;3.00;;
73452;SDS011;61687;56.232;43.854;2022-08-19T13:20:24;14.73;;;3.03;;
73452;SDS011;61687;56.232;43.854;2022-08-19T13:22:51;9.70;;;2.88;;
73452;SDS011;61687;56.232;43.854;2022-08-19T13:25:17;14.93;;;3.20;;
73452;SDS011;61687;56.232;43.854;2022-08-19T13:27:45;20.55;;;3.47;;
73452;SDS011;61687;56.232;43.854;2022-08-19T13:30:13;17.63;;;3.30;;
73452;SDS011;61687;56.232;43.854;2022-08-19T13:33:00;14.77;;;3.47;;
73452;SDS011;61687;56.232;43.854;2022-08-19T13:35:46;12.13;;;3.22;;
73452;SDS011;61687;56.232;43.854;2022-08-19T13:38:15;12.87;;;3.23;;
73452;SDS011;61687;56.232;43.854;2022-08-19T13:40:43;14.40;;;3.42;;
73452;SDS011;61687;56.232;43.854;2022-08-19T13:43:10;15.35;;;3.80;;
73452;SDS011;61687;56.232;43.854;2022-08-19T13:45:36;11.23;;;3.00;;
73452;SDS011;61687;56.232;43.854;2022-08-19T13:48:03;9.48;;;2.90;;
73452;SDS011;61687;56.232;43.854;2022-08-19T13:50:32;9.80;;;2.80;;
73452;SDS011;61687;56.232;43.854;2022-08-19T13:53:01;12.23;;;2.88;;
73452;SDS011;61687;56.232;43.854;2022-08-19T13:55:29;11.73;;;2.90;;
73452;SDS011;61687;56.232;43.854;2022-08-19T13:57:56;13.13;;;2.72;;
73452;SDS011;61687;56.232;43.854;2022-08-19T14:00:25;14.80;;;3.00;;
73452;SDS011;61687;56.232;43.854;2022-08-19T14:02:52;11.90;;;3.00;;
73452;SDS011;61687;56.232;43.854;2022-08-19T14:05:20;11.07;;;2.92;;
73452;SDS011;61687;56.232;43.854;2022-08-19T14:07:46;12.77;;;3.08;;
73452;SDS011;61687;56.232;43.854;2022-08-19T14:10:13;11.95;;;3.25;;
73452;SDS011;61687;56.232;43.854;2022-08-19T14:12:40;11.10;;;3.20;;
73452;SDS011;61687;56.232;43.854;2022-08-19T14:15:07;17.37;;;3.57;;
73452;SDS011;61687;56.232;43.854;2022-08-19T14:17:39;17.98;;;3.42;;
73452;SDS011;61687;56.232;43.854;2022-08-19T14:20:06;8.38;;;2.72;;
73452;SDS011;61687;56.232;43.854;2022-08-19T14:22:37;15.80;;;3.10;;
73452;SDS011;61687;56.232;43.854;2022-08-19T14:25:06;14.05;;;3.20;;
73452;SDS011;61687;56.232;43.854;2022-08-19T14:27:34;10.73;;;3.00;;
73452;SDS011;61687;56.232;43.854;2022-08-19T14:30:01;10.55;;;3.20;;
73452;SDS011;61687;56.232;43.854;2022-08-19T14:32:29;11.07;;;3.10;;
73452;SDS011;61687;56.232;43.854;2022-08-19T14:34:55;9.77;;;3.17;;
73452;SDS011;61687;56.232;43.854;2022-08-19T14:37:21;9.80;;;3.10;;
73452;SDS011;61687;56.232;43.854;2022-08-19T14:39:47;11.47;;;3.30;;